Time;durP1;ratioP1;P1;durP2;ratioP2;P2;SDS_P1;SDS_P2;PMS_P1;PMS_P2;Temp;Humidity;BMP_temperature;BMP_pressure;BME280_temperature;BME280_humidity;BME280_pressure;Samples;Min_cycle;Max_cycle;Signal;HPM_P1;HPM_P2
2021/11/28 00:01:18;;;;;;;;;2.00;2.00;;;;;6.34;72.14;99442.75;4941796;28;44761;-96
2021/11/28 00:03:45;;;;;;;;;2.67;2.00;;;;;6.36;72.11;99452.41;4929384;28;44857;-96
2021/11/28 00:06:23;;;;;;;;;2.00;1.00;;;;;6.21;71.76;99439.59;4929113;28;48416;-96
2021/11/28 00:09:22;;;;;;;;;1.33;1.00;;;;;6.28;72.03;99451.19;4917841;28;45163;-96
2021/11/28 00:12:07;;;;;;;;;5.00;2.00;;;;;6.24;71.86;99452.78;4908896;28;45350;-96
2021/11/28 00:14:33;;;;;;;;;0.00;0.00;;;;;6.10;72.17;99439.19;4910773;28;45617;-96
2021/11/28 00:16:58;;;;;;;;;2.00;2.00;;;;;6.00;72.13;99418.75;4908607;28;47200;-96
2021/11/28 00:19:23;;;;;;;;;1.67;1.00;;;;;6.11;72.13;99443.53;4907943;28;45718;-96
2021/11/28 00:21:49;;;;;;;;;2.67;2.00;;;;;6.04;72.28;99428.44;4906546;28;45454;-96
2021/11/28 00:24:14;;;;;;;;;2.00;2.00;;;;;5.99;71.95;99415.25;4942957;28;45387;-96
2021/11/28 00:26:40;;;;;;;;;1.00;1.00;;;;;6.20;71.91;99450.88;4922022;28;47280;-96
2021/11/28 00:29:08;;;;;;;;;3.00;2.00;;;;;6.01;72.43;99426.59;4918884;28;45017;-96
2021/11/28 00:31:39;;;;;;;;;3.33;2.00;;;;;6.22;72.27;99449.22;4932258;28;44696;-96
2021/11/28 00:34:06;;;;;;;;;1.67;1.67;;;;;6.03;72.48;99426.69;4917214;28;45623;-96
2021/11/28 00:36:32;;;;;;;;;1.33;1.33;;;;;6.11;71.90;99438.34;4913620;28;47182;-96
2021/11/28 00:38:58;;;;;;;;;2.00;1.00;;;;;6.03;72.24;99424.09;4910913;29;44741;-96
2021/11/28 00:41:24;;;;;;;;;2.67;1.67;;;;;6.01;72.24;99421.41;4933559;28;44785;-96
2021/11/28 00:43:51;;;;;;;;;1.33;1.33;;;;;6.00;72.35;99421.34;4929108;28;45001;-96
2021/11/28 00:46:17;;;;;;;;;2.33;2.33;;;;;5.99;72.12;99407.41;4925974;28;45709;-96
2021/11/28 00:53:48;;;;;;;;;3.00;1.33;;;;;6.11;72.26;99440.03;4961472;28;45249;-96
2021/11/28 00:56:14;;;;;;;;;1.00;1.00;;;;;6.01;72.13;99425.72;4946417;28;46640;-96
2021/11/28 00:58:40;;;;;;;;;2.00;1.00;;;;;5.98;72.05;99413.44;4954177;28;45402;-96
2021/11/28 01:01:06;;;;;;;;;3.25;2.00;;;;;6.00;71.71;99434.38;4935717;28;44757;-96
2021/11/28 01:03:32;;;;;;;;;3.00;3.00;;;;;5.99;71.79;99436.06;4934233;28;44976;-96
2021/11/28 01:05:58;;;;;;;;;1.00;1.00;;;;;5.97;71.83;99437.72;4932342;28;46896;-96
2021/11/28 01:08:23;;;;;;;;;3.00;2.00;;;;;6.10;71.99;99465.22;4941445;28;45378;-96
2021/11/28 01:10:50;;;;;;;;;2.33;2.33;;;;;6.07;72.06;99459.88;4933291;28;45442;-96
2021/11/28 01:13:17;;;;;;;;;3.00;2.00;;;;;6.02;72.00;99444.03;4933941;28;44905;-96
2021/11/28 01:15:43;;;;;;;;;3.00;3.00;;;;;6.11;71.45;99458.28;4915016;28;47178;-96
2021/11/28 01:18:11;;;;;;;;;3.00;2.00;;;;;6.03;71.77;99456.22;4931618;28;45455;-96
2021/11/28 01:20:36;;;;;;;;;0.67;0.67;;;;;6.03;71.34;99458.81;4887317;28;44928;-96
2021/11/28 01:23:02;;;;;;;;;3.00;2.00;;;;;6.10;71.54;99473.06;4924634;28;45357;-96
2021/11/28 01:25:28;;;;;;;;;1.67;1.67;;;;;6.03;71.79;99457.94;4935781;28;46912;-96
2021/11/28 01:27:53;;;;;;;;;1.67;1.67;;;;;6.04;71.97;99464.91;4950612;28;45438;-96
2021/11/28 01:30:22;;;;;;;;;3.00;1.00;;;;;6.02;71.48;99457.06;4926577;28;45327;-96
2021/11/28 01:32:49;;;;;;;;;2.00;2.00;;;;;5.96;71.55;99456.78;4941770;28;45422;-96
2021/11/28 01:35:16;;;;;;;;;3.00;3.00;;;;;6.03;71.41;99482.25;4924454;28;47478;-96
2021/11/28 01:37:44;;;;;;;;;0.33;0.33;;;;;5.97;71.63;99474.19;4923610;28;45475;-96
2021/11/28 01:40:13;;;;;;;;;1.00;1.00;;;;;5.99;71.06;99472.53;4945163;28;45492;-96
2021/11/28 01:42:43;;;;;;;;;1.67;1.00;;;;;6.10;71.42;99496.50;4931561;28;45505;-96
2021/11/28 01:45:14;;;;;;;;;1.00;1.00;;;;;6.10;71.63;99504.31;4928807;28;45828;-96
2021/11/28 01:47:40;;;;;;;;;1.00;0.00;;;;;6.04;71.76;99491.88;4943184;28;45345;-96
2021/11/28 01:50:06;;;;;;;;;3.00;1.00;;;;;5.98;71.90;99494.19;4928708;28;45385;-96
2021/11/28 01:52:35;;;;;;;;;1.00;1.00;;;;;6.09;71.47;99505.13;4932341;28;45259;-96
2021/11/28 01:55:00;;;;;;;;;2.00;1.67;;;;;6.13;71.52;99509.63;4928289;28;47181;-96
2021/11/28 01:57:26;;;;;;;;;2.33;1.00;;;;;6.00;71.65;99496.88;4925860;28;45483;-96
2021/11/28 01:59:51;;;;;;;;;0.67;0.67;;;;;6.02;71.72;99495.22;4929668;28;45364;-96
2021/11/28 02:02:17;;;;;;;;;1.67;1.00;;;;;6.02;71.39;99501.34;4927803;28;45088;-96
2021/11/28 02:04:45;;;;;;;;;4.00;2.00;;;;;6.13;71.36;99527.00;4926337;28;47069;-96
2021/11/28 02:07:11;;;;;;;;;2.00;2.00;;;;;6.04;70.88;99511.81;4925080;28;46099;-95
2021/11/28 02:09:38;;;;;;;;;5.00;2.00;;;;;6.13;71.01;99534.81;4906202;28;45242;-96
2021/11/28 02:12:05;;;;;;;;;2.00;1.00;;;;;5.92;71.55;99509.56;4923585;28;45173;-96
2021/11/28 02:14:31;;;;;;;;;2.00;2.00;;;;;6.02;71.60;99531.72;4912774;28;47425;-96
2021/11/28 02:16:56;;;;;;;;;2.00;1.00;;;;;6.03;71.82;99530.91;4913214;28;45452;-96
2021/11/28 02:19:22;;;;;;;;;3.67;2.00;;;;;5.91;71.54;99507.78;4906526;28;45420;-96
2021/11/28 02:21:47;;;;;;;;;1.33;1.33;;;;;6.01;71.31;99524.69;4922158;28;46006;-95
2021/11/28 02:24:12;;;;;;;;;1.00;1.00;;;;;6.08;71.43;99544.16;4958874;28;48273;-96
2021/11/28 02:26:38;;;;;;;;;2.00;1.00;;;;;5.98;71.21;99528.06;4930576;28;45433;-96
2021/11/28 02:29:03;;;;;;;;;1.00;1.00;;;;;5.91;71.13;99513.88;4929242;28;45421;-96
2021/11/28 02:31:29;;;;;;;;;3.00;0.00;;;;;6.02;71.26;99530.00;4948387;28;45661;-96
2021/11/28 02:33:54;;;;;;;;;1.33;1.00;;;;;6.03;71.39;99523.94;4923826;28;47404;-96
2021/11/28 02:36:20;;;;;;;;;1.00;1.00;;;;;6.05;71.16;99534.44;4918278;28;45328;-96
2021/11/28 02:38:45;;;;;;;;;0.67;0.67;;;;;6.15;71.36;99559.22;4938754;28;45333;-96
2021/11/28 02:41:11;;;;;;;;;6.00;1.00;;;;;6.14;71.50;99547.00;4931751;28;45532;-96
2021/11/28 02:43:37;;;;;;;;;2.00;1.00;;;;;6.12;71.42;99551.25;4924926;28;47012;-96
2021/11/28 02:46:07;;;;;;;;;2.00;0.00;;;;;6.04;71.66;99546.59;4926139;28;45690;-96
2021/11/28 02:48:33;;;;;;;;;0.67;0.67;;;;;6.06;71.53;99544.03;4934442;28;45547;-96
2021/11/28 02:51:01;;;;;;;;;2.00;2.00;;;;;6.10;71.30;99553.81;4922258;28;45469;-95
2021/11/28 02:53:26;;;;;;;;;1.00;1.00;;;;;6.11;71.69;99550.38;4919359;28;47191;-96
2021/11/28 02:56:12;;;;;;;;;3.00;1.00;;;;;5.98;71.40;99530.66;4948177;28;45262;-94
2021/11/28 03:09:00;;;;;;;;;1.00;0.00;;;;;6.06;71.00;99545.75;5638568;23;45785;-96
2021/11/28 03:11:25;;;;;;;;;1.00;1.00;;;;;5.99;71.02;99548.09;4938581;28;45182;-96
2021/11/28 03:13:52;;;;;;;;;0.00;0.00;;;;;5.95;71.28;99534.88;4940324;28;47464;-96
2021/11/28 03:16:24;;;;;;;;;0.00;0.00;;;;;6.00;71.09;99543.78;4942079;28;45355;-96
2021/11/28 03:18:51;;;;;;;;;0.00;0.00;;;;;6.02;70.77;99548.22;4941276;28;45512;-96
2021/11/28 03:21:21;;;;;;;;;0.00;0.00;;;;;5.95;70.94;99540.97;4957258;28;45543;-96
2021/11/28 03:23:49;;;;;;;;;0.67;0.33;;;;;5.92;71.56;99538.22;4926033;28;47302;-96
2021/11/28 03:26:24;;;;;;;;;0.00;0.00;;;;;5.93;71.31;99540.88;4932855;28;47213;-95
2021/11/28 03:28:58;;;;;;;;;0.67;0.67;;;;;6.09;70.93;99565.06;4957031;28;45542;-96
2021/11/28 03:31:26;;;;;;;;;0.33;0.33;;;;;6.04;71.39;99558.72;4954382;28;45514;-96
2021/11/28 03:33:52;;;;;;;;;0.00;0.00;;;;;6.11;70.82;99567.72;4922237;28;47324;-95
2021/11/28 03:36:21;;;;;;;;;1.33;1.00;;;;;6.08;70.99;99570.22;4940831;28;45741;-95
2021/11/28 03:38:48;;;;;;;;;1.33;1.00;;;;;6.06;71.10;99572.69;4941543;28;45556;-96
2021/11/28 03:41:15;;;;;;;;;0.00;0.00;;;;;6.05;71.04;99581.34;4940857;28;45361;-96
2021/11/28 03:43:41;;;;;;;;;0.00;0.00;;;;;5.87;70.75;99557.97;4940817;28;48172;-96
2021/11/28 03:46:07;;;;;;;;;1.00;0.00;;;;;5.92;71.11;99565.16;4940494;28;45740;-96
2021/11/28 03:48:33;;;;;;;;;0.33;0.33;;;;;6.00;70.62;99575.94;4941058;28;45471;-96
2021/11/28 03:50:58;;;;;;;;;0.00;0.00;;;;;5.97;70.80;99573.19;4940789;28;45501;-96
2021/11/28 03:53:24;;;;;;;;;1.00;1.00;;;;;5.97;70.96;99573.19;4940768;28;47082;-96
2021/11/28 03:55:50;;;;;;;;;3.67;2.00;;;;;6.05;70.18;99591.78;4940929;28;45462;-95
2021/11/28 03:58:16;;;;;;;;;0.00;0.00;;;;;5.97;70.92;99586.22;4940436;28;45545;-95
2021/11/28 04:00:42;;;;;;;;;1.00;0.00;;;;;5.98;70.76;99581.91;4940974;28;45504;-96
2021/11/28 04:03:10;;;;;;;;;0.00;0.00;;;;;5.86;70.41;99572.69;4940854;28;47097;-96
2021/11/28 04:05:35;;;;;;;;;0.50;0.00;;;;;5.88;70.95;99572.75;4941061;28;45621;-96
2021/11/28 04:08:01;;;;;;;;;0.33;0.33;;;;;5.88;70.40;99581.47;4953467;28;45341;-96
2021/11/28 04:10:26;;;;;;;;;0.00;0.00;;;;;5.88;70.51;99581.47;4923276;28;45531;-96
2021/11/28 04:12:52;;;;;;;;;0.00;0.00;;;;;5.89;70.60;99580.66;4936913;28;47295;-95
2021/11/28 04:15:17;;;;;;;;;0.00;0.00;;;;;5.98;70.69;99585.38;4936078;28;45426;-95
2021/11/28 04:17:42;;;;;;;;;0.00;0.00;;;;;5.91;70.57;99580.72;4935827;28;45535;-96
2021/11/28 04:20:09;;;;;;;;;2.00;1.00;;;;;5.93;70.61;99592.09;4956569;28;45548;-95
2021/11/28 04:22:34;;;;;;;;;0.00;0.00;;;;;5.93;70.91;99581.66;4937665;28;48597;-96
2021/11/28 04:25:02;;;;;;;;;0.00;0.00;;;;;5.95;70.56;99590.47;4949609;28;45458;-96
2021/11/28 04:27:27;;;;;;;;;5.00;1.67;;;;;5.93;70.99;99589.47;4991880;28;45229;-95
2021/11/28 04:29:53;;;;;;;;;0.33;0.33;;;;;5.88;71.18;99572.75;4965222;28;45356;-96
2021/11/28 04:32:19;;;;;;;;;1.00;1.00;;;;;5.86;70.96;99558.78;4953792;28;47288;-96
2021/11/28 04:34:44;;;;;;;;;1.00;1.00;;;;;5.93;70.95;99576.47;4968506;28;45329;-96
2021/11/28 04:37:10;;;;;;;;;1.00;1.00;;;;;5.91;70.84;99585.91;4933854;28;45079;-96
2021/11/28 04:39:36;;;;;;;;;0.00;0.00;;;;;5.93;70.92;99589.47;4946292;28;45310;-96
2021/11/28 04:42:02;;;;;;;;;1.00;1.00;;;;;5.91;70.97;99593.72;4946350;28;47514;-96
2021/11/28 04:44:28;;;;;;;;;0.00;0.00;;;;;5.93;70.56;99592.09;4952585;28;45463;-96
2021/11/28 04:46:53;;;;;;;;;1.00;0.00;;;;;5.84;70.82;99587.38;4959558;28;45516;-95
2021/11/28 04:49:19;;;;;;;;;2.33;1.00;;;;;5.89;71.19;99590.16;4960359;28;45463;-96
2021/11/28 04:51:44;;;;;;;;;0.67;0.67;;;;;5.90;71.14;99602.38;4976164;28;47194;-96
2021/11/28 04:54:11;;;;;;;;;2.00;0.00;;;;;5.77;70.91;99578.34;4941358;28;45443;-95
2021/11/28 04:56:36;;;;;;;;;2.67;0.67;;;;;5.85;70.72;99598.69;4940092;28;45447;-96
2021/11/28 04:59:02;;;;;;;;;0.00;0.00;;;;;5.85;70.61;99603.88;4952802;28;45354;-95
2021/11/28 05:01:27;;;;;;;;;0.00;0.00;;;;;5.80;70.80;99593.22;4925075;28;48408;-95
2021/11/28 05:03:53;;;;;;;;;0.00;0.00;;;;;5.82;70.90;99592.47;4952582;28;45249;-95
2021/11/28 05:06:19;;;;;;;;;0.00;0.00;;;;;5.94;71.16;99617.31;4937185;28;45279;-96
2021/11/28 05:08:45;;;;;;;;;0.00;0.00;;;;;5.98;70.65;99615.75;4948990;28;45812;-96
2021/11/28 05:11:10;;;;;;;;;3.00;1.00;;;;;5.92;70.60;99608.56;4925934;28;48370;-96
2021/11/28 05:13:35;;;;;;;;;1.67;0.67;;;;;5.86;70.66;99605.66;4932119;28;45809;-96
2021/11/28 05:16:01;;;;;;;;;1.67;1.67;;;;;5.89;71.00;99611.91;4943558;28;45390;-95
2021/11/28 05:18:26;;;;;;;;;0.00;0.00;;;;;5.82;70.96;99605.50;4956333;28;45249;-96
2021/11/28 05:20:51;;;;;;;;;0.00;0.00;;;;;5.97;70.81;99627.88;4943417;28;47179;-95
2021/11/28 05:23:17;;;;;;;;;0.00;0.00;;;;;5.85;71.04;99607.34;4935030;28;45381;-95
2021/11/28 05:25:42;;;;;;;;;1.33;1.00;;;;;5.95;70.62;99620.81;4940114;28;45437;-96
2021/11/28 05:28:10;;;;;;;;;1.00;1.00;;;;;5.88;70.72;99598.78;4940766;28;45573;-96
2021/11/28 05:30:37;;;;;;;;;1.00;1.00;;;;;5.86;71.08;99606.56;4923937;28;47522;-96
2021/11/28 05:33:02;;;;;;;;;0.67;0.00;;;;;5.96;70.54;99622.59;4953523;28;45411;-96
2021/11/28 05:35:27;;;;;;;;;1.33;0.00;;;;;5.91;70.61;99627.59;4936692;28;45503;-94
2021/11/28 05:37:53;;;;;;;;;0.00;0.00;;;;;5.91;70.93;99622.38;4950087;28;45552;-95
2021/11/28 05:40:19;;;;;;;;;2.33;2.00;;;;;5.85;70.65;99612.56;4939820;28;46783;-96
2021/11/28 05:42:48;;;;;;;;;0.00;0.00;;;;;5.83;70.94;99614.22;4942300;28;45304;-95
2021/11/28 05:45:13;;;;;;;;;0.00;0.00;;;;;5.87;71.08;99618.75;4939504;28;45426;-95
2021/11/28 05:47:39;;;;;;;;;2.67;1.00;;;;;5.91;71.42;99627.59;4937767;28;45649;-96
2021/11/28 05:50:05;;;;;;;;;1.00;1.00;;;;;5.90;71.03;99631.03;4943630;28;47112;-96
2021/11/28 05:52:30;;;;;;;;;2.00;0.00;;;;;5.92;71.22;99630.28;4946648;28;45648;-95
2021/11/28 05:54:56;;;;;;;;;1.00;1.00;;;;;5.90;71.50;99628.44;4944506;28;45708;-95
2021/11/28 05:57:22;;;;;;;;;1.00;1.00;;;;;5.84;71.31;99628.13;4958805;28;45639;-95
2021/11/28 05:59:47;;;;;;;;;0.00;0.00;;;;;5.94;71.49;99648.59;4939806;28;47381;-96
2021/11/28 06:02:13;;;;;;;;;2.00;1.00;;;;;5.85;71.62;99633.41;4933676;28;45292;-95
2021/11/28 06:04:38;;;;;;;;;2.00;1.00;;;;;5.85;71.68;99640.34;4955639;28;45265;-96
2021/11/28 06:07:04;;;;;;;;;2.00;1.00;;;;;5.93;71.94;99658.09;4932051;28;45662;-96
2021/11/28 06:09:29;;;;;;;;;1.00;1.00;;;;;5.92;72.01;99660.66;4942114;28;48409;-96
2021/11/28 06:11:55;;;;;;;;;0.67;0.00;;;;;5.93;71.76;99660.72;4941955;28;45759;-96
2021/11/28 06:14:20;;;;;;;;;0.33;0.33;;;;;5.86;71.96;99645.63;4941606;28;45448;-96
2021/11/28 06:16:46;;;;;;;;;1.67;1.00;;;;;5.89;71.65;99655.28;4938895;28;45340;-96
2021/11/28 06:19:11;;;;;;;;;0.67;0.67;;;;;5.89;71.74;99655.28;4925633;28;48104;-96
2021/11/28 06:21:37;;;;;;;;;3.00;2.00;;;;;5.87;71.65;99649.13;4942404;28;45890;-96
2021/11/28 06:24:02;;;;;;;;;0.33;0.33;;;;;5.89;71.78;99660.50;4942018;28;45560;-96
2021/11/28 06:26:27;;;;;;;;;3.00;1.00;;;;;5.99;71.87;99675.75;4943871;28;45643;-95
2021/11/28 06:28:53;;;;;;;;;1.33;1.33;;;;;5.93;72.15;99665.91;4946607;28;47336;-96
2021/11/28 06:31:18;;;;;;;;;0.67;0.67;;;;;5.91;71.56;99671.88;4961111;28;45603;-95
2021/11/28 06:33:44;;;;;;;;;1.00;1.00;;;;;5.91;71.85;99672.78;4961488;28;45418;-96
2021/11/28 06:36:10;;;;;;;;;2.00;2.00;;;;;5.88;71.24;99676.94;4960257;28;45409;-96
2021/11/28 06:38:35;;;;;;;;;2.00;0.67;;;;;5.86;71.72;99668.16;4958813;28;47586;-96
2021/11/28 06:41:01;;;;;;;;;1.00;0.00;;;;;5.89;71.69;99682.22;4939088;28;45681;-96
2021/11/28 06:43:27;;;;;;;;;2.00;1.00;;;;;5.86;71.70;99674.28;4946302;28;45450;-96
2021/11/28 06:45:52;;;;;;;;;2.00;1.00;;;;;5.86;71.67;99668.16;4923143;28;45623;-96
2021/11/28 06:48:18;;;;;;;;;1.00;1.00;;;;;5.86;71.24;99679.47;4942649;28;47259;-96
2021/11/28 06:50:43;;;;;;;;;2.00;0.67;;;;;5.88;71.97;99688.25;4942432;28;45857;-96
2021/11/28 06:53:09;;;;;;;;;0.00;0.00;;;;;5.85;70.74;99664.66;4938765;28;45305;-96
2021/11/28 06:55:35;;;;;;;;;1.00;1.00;;;;;5.85;71.38;99680.28;4945730;28;45386;-95
2021/11/28 06:58:00;;;;;;;;;1.67;1.67;;;;;5.80;70.88;99686.97;4941427;28;48042;-96
2021/11/28 07:00:26;;;;;;;;;1.00;1.00;;;;;5.89;70.54;99702.16;4938737;28;45333;-95
2021/11/28 07:02:51;;;;;;;;;1.00;1.00;;;;;5.81;71.12;99697.50;4954473;28;45374;-96
2021/11/28 07:05:17;;;;;;;;;0.00;0.00;;;;;5.70;70.51;99690.88;4951469;28;45916;-96
2021/11/28 07:07:42;;;;;;;;;1.67;0.00;;;;;5.77;70.50;99710.31;4952144;28;47232;-95
2021/11/28 07:10:08;;;;;;;;;2.00;1.33;;;;;5.81;70.63;99718.34;4925042;28;45618;-95
2021/11/28 07:12:34;;;;;;;;;1.00;1.00;;;;;5.75;70.16;99706.72;4940969;28;45553;-96
2021/11/28 07:14:59;;;;;;;;;2.33;2.33;;;;;5.66;70.31;99704.56;4958666;28;45526;-96
2021/11/28 07:17:25;;;;;;;;;0.67;0.67;;;;;5.63;70.61;99705.31;4941912;28;46884;-96
2021/11/28 07:19:50;;;;;;;;;0.33;0.33;;;;;5.75;70.59;99727.53;4953190;28;45435;-95
2021/11/28 07:22:16;;;;;;;;;1.00;1.00;;;;;5.78;70.67;99732.91;4935086;28;45475;-82
2021/11/28 07:24:41;;;;;;;;;0.67;0.67;;;;;5.80;70.63;99728.66;4963694;28;45376;-81
2021/11/28 07:27:08;;;;;;;;;1.00;1.00;;;;;5.84;70.50;99735.81;4951059;28;45533;-82
2021/11/28 07:29:34;;;;;;;;;1.33;1.00;;;;;5.86;70.50;99736.78;4953450;28;45442;-81
2021/11/28 07:31:59;;;;;;;;;2.00;0.00;;;;;5.92;70.43;99742.28;4950577;28;47722;-81
2021/11/28 07:34:25;;;;;;;;;1.00;1.00;;;;;5.93;70.04;99749.28;4933997;28;45580;-82
2021/11/28 07:36:51;;;;;;;;;2.33;1.67;;;;;5.97;70.26;99760.75;4953439;28;45243;-82
2021/11/28 07:39:16;;;;;;;;;2.67;2.00;;;;;5.98;69.76;99762.50;4948299;28;45502;-83
2021/11/28 07:41:42;;;;;;;;;0.00;0.00;;;;;6.02;70.11;99761.88;4951943;28;45607;-82
2021/11/28 07:44:07;;;;;;;;;0.00;0.00;;;;;6.02;69.70;99766.16;4949267;28;45463;-83
2021/11/28 07:46:33;;;;;;;;;0.00;0.00;;;;;6.09;69.97;99780.41;4951105;28;45613;-83
2021/11/28 07:48:58;;;;;;;;;1.00;1.00;;;;;6.10;70.04;99775.28;4952304;28;45596;-83
2021/11/28 07:51:24;;;;;;;;;2.00;0.67;;;;;6.12;69.54;99780.56;4953473;28;45684;-81
2021/11/28 07:53:51;;;;;;;;;1.67;1.67;;;;;6.10;69.53;99785.72;4950044;28;45650;-81
2021/11/28 07:56:19;;;;;;;;;1.67;1.00;;;;;6.16;68.99;99790.31;4949460;28;45655;-81
2021/11/28 07:58:45;;;;;;;;;0.00;0.00;;;;;6.13;68.69;99784.97;4951386;28;45410;-82
2021/11/28 08:01:10;;;;;;;;;0.00;0.00;;;;;6.17;69.60;99791.19;4933853;28;45587;-81
2021/11/28 08:03:36;;;;;;;;;2.00;0.67;;;;;6.18;69.55;99791.28;4935415;28;45497;-82
2021/11/28 08:06:01;;;;;;;;;1.00;1.00;;;;;6.20;69.41;99796.56;4950779;28;46390;-81
2021/11/28 08:08:27;;;;;;;;;3.00;1.67;;;;;6.22;69.57;99803.63;4952462;28;45561;-81
2021/11/28 08:10:54;;;;;;;;;1.67;1.67;;;;;6.24;68.99;99806.31;4951995;28;45337;-81
2021/11/28 08:13:20;;;;;;;;;1.00;1.00;;;;;6.26;68.87;99813.38;4943606;28;45653;-80
2021/11/28 08:15:46;;;;;;;;;2.67;1.33;;;;;6.25;69.23;99805.50;4961044;28;45579;-81
2021/11/28 08:18:11;;;;;;;;;3.00;0.00;;;;;6.26;69.22;99815.13;4935820;28;45506;-82
2021/11/28 08:20:36;;;;;;;;;5.00;2.00;;;;;6.33;68.90;99819.78;4949811;28;45731;-80
2021/11/28 08:23:04;;;;;;;;;0.67;0.67;;;;;6.38;69.22;99817.41;4949622;28;45978;-81
2021/11/28 08:25:29;;;;;;;;;6.00;1.67;;;;;6.42;68.43;99828.84;4952282;28;45707;-83
2021/11/28 08:27:54;;;;;;;;;1.00;1.00;;;;;6.42;68.99;99819.31;4946809;28;45494;-81
2021/11/28 08:30:20;;;;;;;;;1.00;1.00;;;;;6.44;68.80;99822.88;4960689;28;45450;-81
2021/11/28 08:32:48;;;;;;;;;2.00;2.00;;;;;6.48;68.96;99832.66;4953777;28;45406;-81
2021/11/28 08:35:14;;;;;;;;;5.00;4.33;;;;;6.52;68.74;99818.03;4952421;28;46320;-81
2021/11/28 08:37:39;;;;;;;;;1.00;1.00;;;;;6.60;68.46;99826.22;4948738;28;45441;-81
2021/11/28 08:40:08;;;;;;;;;2.00;2.00;;;;;6.61;68.76;99830.63;4958250;28;45591;-83
2021/11/28 08:42:34;;;;;;;;;1.67;1.00;;;;;6.61;68.67;99829.72;4951970;28;45435;-81
2021/11/28 08:45:01;;;;;;;;;6.00;3.00;;;;;6.66;68.48;99830.84;4948818;28;50074;-81
2021/11/28 08:47:26;;;;;;;;;1.33;1.33;;;;;6.69;68.19;99833.59;4933648;28;46236;-83
2021/11/28 08:49:52;;;;;;;;;3.33;2.00;;;;;6.76;68.28;99837.38;4937799;28;45367;-81
2021/11/28 08:52:17;;;;;;;;;2.67;1.00;;;;;6.82;67.98;99829.84;4954211;28;45309;-82
2021/11/28 08:54:42;;;;;;;;;2.33;2.33;;;;;6.87;68.11;99836.16;4957186;28;45828;-83
2021/11/28 08:57:08;;;;;;;;;3.00;1.00;;;;;6.90;67.82;99835.41;4936493;28;46818;-89
2021/11/28 08:59:33;;;;;;;;;2.00;2.00;;;;;6.93;67.75;99840.78;4938036;28;45437;-87
2021/11/28 09:01:59;;;;;;;;;1.67;1.67;;;;;6.93;67.69;99841.63;4921728;28;45552;-88
2021/11/28 09:04:24;;;;;;;;;4.00;3.00;;;;;7.00;67.46;99850.66;4938217;28;47587;-88
2021/11/28 09:06:50;;;;;;;;;2.00;2.00;;;;;6.99;67.11;99851.47;4934614;28;45484;-88
2021/11/28 09:09:15;;;;;;;;;3.00;3.00;;;;;6.92;67.72;99847.69;4935488;28;45485;-88
2021/11/28 09:11:40;;;;;;;;;4.33;3.00;;;;;6.95;67.45;99856.47;4948658;28;45561;-88
2021/11/28 09:14:06;;;;;;;;;2.33;2.00;;;;;6.88;67.05;99853.56;4934915;28;47112;-88
2021/11/28 09:16:31;;;;;;;;;3.00;3.00;;;;;6.84;67.70;99853.38;4951538;28;45516;-89
2021/11/28 09:21:41;;;;;;;;;3.00;3.00;;;;;6.77;67.74;99866.16;4966121;28;45595;-89
2021/11/28 09:26:50;;;;;;;;;3.00;2.33;;;;;6.75;68.31;99869.50;4948624;28;45738;-89
2021/11/28 09:29:15;;;;;;;;;1.00;1.00;;;;;6.69;68.08;99881.44;4952291;28;46946;-88
2021/11/28 09:31:41;;;;;;;;;6.00;1.33;;;;;6.69;68.15;99884.03;4951894;28;45487;-89
2021/11/28 09:34:06;;;;;;;;;4.33;2.00;;;;;6.73;66.93;99889.38;4936553;28;47908;-89
2021/11/28 09:36:32;;;;;;;;;3.33;2.00;;;;;6.72;67.05;99880.69;4937006;28;45464;-88
2021/11/28 09:38:59;;;;;;;;;3.67;2.00;;;;;6.74;67.65;99892.09;4953571;28;45428;-91
2021/11/28 09:41:29;;;;;;;;;4.00;2.00;;;;;6.73;67.44;99887.66;4950553;28;45835;-88
2021/11/28 09:43:57;;;;;;;;;1.67;1.67;;;;;6.73;67.57;99886.78;4951645;28;45503;-89
2021/11/28 09:46:24;;;;;;;;;5.00;3.00;;;;;6.75;67.38;99887.75;4956633;28;45486;-88
2021/11/28 09:48:57;;;;;;;;;3.00;3.00;;;;;6.76;67.57;99892.13;4933141;28;45668;-89
2021/11/28 09:51:23;;;;;;;;;5.00;3.00;;;;;6.80;67.60;99904.53;4956121;28;45460;-87
2021/11/28 09:53:49;;;;;;;;;7.00;6.00;;;;;6.79;66.92;99894.91;4948479;28;47250;-87
2021/11/28 09:56:15;;;;;;;;;5.00;4.33;;;;;6.83;67.59;99909.88;4948546;28;45992;-88
2021/11/28 09:58:41;;;;;;;;;2.33;2.33;;;;;6.80;67.14;99904.53;4978601;28;45247;-87
2021/11/28 10:01:07;;;;;;;;;2.33;2.33;;;;;6.80;66.54;99910.63;4962220;28;45334;-87
2021/11/28 10:03:32;;;;;;;;;5.00;5.00;;;;;6.84;67.28;99921.19;4930917;28;47116;-85
2021/11/28 10:05:58;;;;;;;;;6.00;4.33;;;;;6.86;66.65;99910.00;4962744;28;45782;-85
2021/11/28 10:08:25;;;;;;;;;3.00;2.00;;;;;6.98;67.58;99924.47;4940689;28;45816;-85
2021/11/28 10:11:16;;;;;;;;;6.00;3.00;;;;;6.98;66.80;99925.38;4917369;28;45648;-88
2021/11/28 10:13:43;;;;;;;;;2.00;2.00;;;;;6.90;66.41;99918.91;4936927;28;46089;-87
2021/11/28 10:16:08;;;;;;;;;4.33;4.33;;;;;6.89;66.85;99925.81;4944172;28;45438;-87
2021/11/28 10:18:36;;;;;;;;;6.00;3.00;;;;;6.84;66.74;99935.13;4946637;28;45343;-87
2021/11/28 10:21:01;;;;;;;;;3.00;3.00;;;;;6.77;66.81;99926.13;4932033;28;45532;-86
2021/11/28 10:23:27;;;;;;;;;4.00;2.00;;;;;6.82;66.86;99927.25;4944037;28;45455;-86
2021/11/28 10:26:12;;;;;;;;;3.00;3.00;;;;;6.92;66.86;99925.06;4940118;28;45379;-86
2021/11/28 10:29:08;;;;;;;;;5.00;3.00;;;;;6.95;66.92;99927.84;4926453;28;45722;-85
2021/11/28 10:31:47;;;;;;;;;4.00;2.00;;;;;6.95;66.50;99925.22;4937319;28;45510;-86
2021/11/28 10:34:37;;;;;;;;;2.00;1.67;;;;;6.89;66.40;99912.78;4935122;28;45648;-85
2021/11/28 10:37:16;;;;;;;;;2.00;2.00;;;;;6.95;66.27;99917.41;4922696;28;45601;-85
2021/11/28 10:39:59;;;;;;;;;3.00;2.00;;;;;6.97;65.43;99914.84;4937694;28;45721;-85
2021/11/28 10:42:27;;;;;;;;;3.67;3.67;;;;;6.96;66.31;99919.16;4926078;28;45589;-86
2021/11/28 10:45:01;;;;;;;;;3.00;3.00;;;;;6.91;66.10;99916.34;4936114;28;48347;-85
2021/11/28 10:47:47;;;;;;;;;3.67;2.00;;;;;6.96;66.50;99913.06;4931902;28;45478;-84
2021/11/28 10:50:35;;;;;;;;;3.00;2.00;;;;;7.08;66.13;99916.25;4906137;28;45946;-85
2021/11/28 10:53:03;;;;;;;;;6.00;3.00;;;;;7.20;66.17;99915.00;4917779;28;45520;-84
2021/11/28 10:55:34;;;;;;;;;6.75;5.75;;;;;7.30;66.13;99921.53;4923841;28;47390;-86
2021/11/28 10:58:13;;;;;;;;;6.33;3.00;;;;;7.37;65.64;99911.44;4934305;28;45882;-85
2021/11/28 11:00:41;;;;;;;;;6.00;4.33;;;;;7.43;66.05;99910.81;4936314;28;45173;-85
2021/11/28 11:03:23;;;;;;;;;3.67;3.00;;;;;7.52;65.59;99906.84;4933825;28;45376;-85
2021/11/28 11:05:51;;;;;;;;;2.33;2.33;;;;;7.54;65.79;99889.53;4916663;28;47076;-85
2021/11/28 11:08:23;;;;;;;;;4.33;4.33;;;;;7.62;65.20;99892.47;4917655;28;45995;-87
2021/11/28 11:10:51;;;;;;;;;5.33;3.33;;;;;7.67;65.35;99901.41;4951406;28;45515;-86
2021/11/28 11:13:19;;;;;;;;;3.67;3.67;;;;;7.73;64.76;99908.63;4946424;28;45821;-87
2021/11/28 11:15:51;;;;;;;;;9.50;6.25;;;;;7.71;64.44;99905.91;4940378;28;47289;-86
2021/11/28 11:18:21;;;;;;;;;5.00;2.25;;;;;7.65;64.47;99895.22;4957668;28;45624;-85
2021/11/28 11:20:49;;;;;;;;;6.00;6.00;;;;;7.71;64.23;99905.91;4960816;28;45531;-85
2021/11/28 11:23:42;;;;;;;;;5.25;4.25;;;;;7.75;63.92;99907.84;4958012;28;46466;-86
2021/11/28 11:26:24;;;;;;;;;2.75;2.75;;;;;7.79;62.83;99898.41;4926198;28;47237;-85
2021/11/28 11:29:06;;;;;;;;;5.00;3.25;;;;;7.79;63.42;99898.41;4936205;28;46914;-84
2021/11/28 11:31:33;;;;;;;;;3.00;3.00;;;;;7.80;63.45;99915.88;4943171;28;45770;-84
2021/11/28 11:33:58;;;;;;;;;1.67;1.67;;;;;7.74;62.88;99916.50;4950488;28;45312;-85
2021/11/28 11:36:55;;;;;;;;;3.00;2.00;;;;;7.71;63.23;99924.22;4940262;28;47777;-86
2021/11/28 11:39:23;;;;;;;;;8.00;6.00;;;;;7.64;62.93;99909.09;4939094;28;45531;-87
2021/11/28 11:41:49;;;;;;;;;4.75;4.75;;;;;7.59;62.30;99912.41;4949917;28;45446;-85
2021/11/28 11:44:16;;;;;;;;;2.67;2.00;;;;;7.59;62.54;99914.13;4950980;28;48161;-84
2021/11/28 11:46:45;;;;;;;;;5.67;3.33;;;;;7.62;62.55;99918.59;4945875;28;45697;-85
2021/11/28 11:49:13;;;;;;;;;4.67;3.00;;;;;7.69;62.11;99925.88;4954526;28;45380;-85
2021/11/28 11:51:39;;;;;;;;;5.00;3.00;;;;;7.78;61.39;99918.41;4958462;28;45582;-85
2021/11/28 11:54:05;;;;;;;;;5.67;5.33;;;;;7.84;62.21;99917.78;4954034;28;45575;-84
2021/11/28 11:56:32;;;;;;;;;5.33;3.00;;;;;7.90;61.29;99917.16;4954257;28;47514;-85
2021/11/28 11:59:13;;;;;;;;;3.67;3.00;;;;;7.93;60.23;99927.75;4955701;28;45315;-84
2021/11/28 12:01:39;;;;;;;;;4.00;3.00;;;;;7.91;60.47;99918.97;4956464;28;45494;-84
2021/11/28 12:04:05;;;;;;;;;2.67;2.67;;;;;7.88;60.71;99922.34;4954943;28;45498;-85